Terminal Aerodrome Forecast
Issued by NWS

Home | Current Version | Previous Version | Text Only | Print | Product List | Glossary On
Versions: 1 2 3 4 5 6 7 8 9 10 11 12 13
160
FTUS43 KEAX 101732
TAFMKC
TAF
KMKC 101732Z 1018/1118 15009KT P6SM OVC045
     FM111000 17012KT P6SM OVC025
     FM111200 18010KT 5SM -DZ OVC008=

USA.gov is the U.S. government's official web portal to all federal, state and local government web resources and services.